Hlavní strana
METAR-TAF:

METAR-TAF

Letiště :

Capital City Airport

Frankfort, Kentucky, Spojené státy americké

zeměpisná šířka: 38-11-05N, zeměpisná délka: 084-54-12W, výška: 245 m

Aktuální stav počasí

Zpráva byla vytvořena před 43 minutami, v 04:53 UTC
Jihozápadní vítr 10 kt
Teplota 14°C
Vlhkost vzduchu 58%
Tlak 1015 hPa
Viditelnost: 16.1 km
Zataženo ve výšce 2300 ft

METAR: KFFT 220453Z AUTO 22010KT 10SM OVC023 14/06 A2998 RMK AO2 SLP152 T01390061 401560039

Čas: 00:36 (05:36 UTC)


TAF: chybějící

Stav a předpovědi počasí z více než 4 000 letišť (zprávy METAR a TAF).

Červené a žluté tečky na mapě představují dostupné meteorologické stanice.

Když kurzor umístíte na tečku, zobrazí se název stanice.

Pak kliknutím zobrazíte stav a předpověď počasí.

Chcete-li změnit mapu, kliknutím na zelené tlačítko se znaménkem +mapu přiblížíte, kliknutím na zelené tlačítko se znaménkem – mapu oddálíte a kliknutím na zelené šipky přejdete na sousední mapy.


METAR-TAF: